createdAt,value
2018-11-03T00:08:26.527Z,4.80
2018-11-03T00:13:25.925Z,4.90
2018-11-03T00:15:55.972Z,4.90
2018-11-03T00:18:25.935Z,4.90
2018-11-03T00:20:55.916Z,4.90
2018-11-03T00:23:25.871Z,4.90
2018-11-03T00:25:59.220Z,4.90
2018-11-03T00:30:58.654Z,4.90
2018-11-03T00:35:58.025Z,4.90
2018-11-03T00:48:26.499Z,4.70
2018-11-03T00:50:56.451Z,4.80
2018-11-03T01:00:54.607Z,4.80
2018-11-03T01:25:49.488Z,4.30
2018-11-03T01:35:48.470Z,4.20
2018-11-03T01:38:18.389Z,4.20
2018-11-03T01:48:16.549Z,4.10
2018-11-03T02:03:13.556Z,4.00
2018-11-03T02:30:38.103Z,3.80
2018-11-03T02:55:36.786Z,3.70
2018-11-03T02:58:07.035Z,3.70
2018-11-03T03:03:06.544Z,3.70
2018-11-03T03:05:36.514Z,3.60
2018-11-03T03:08:06.448Z,3.60
2018-11-03T03:15:37.436Z,3.60
2018-11-03T03:33:09.865Z,3.70
2018-11-03T03:43:08.150Z,3.50
2018-11-03T03:53:06.290Z,3.50
2018-11-03T04:03:04.829Z,3.30
2018-11-03T04:05:34.805Z,3.30
2018-11-03T04:08:07.953Z,3.30
2018-11-03T04:13:11.142Z,3.40
2018-11-03T04:18:11.445Z,3.40
2018-11-03T04:20:41.573Z,3.40
2018-11-03T04:30:39.840Z,3.40
2018-11-03T04:33:09.760Z,3.40
2018-11-03T04:35:39.700Z,3.40
2018-11-03T04:38:09.672Z,3.40
2018-11-03T04:45:38.537Z,3.20
2018-11-03T04:48:08.442Z,3.20
2018-11-03T04:50:38.492Z,3.20
2018-11-03T05:08:05.020Z,2.90
2018-11-03T05:10:35.064Z,3.10
2018-11-03T05:15:34.954Z,3.10
2018-11-03T05:18:07.663Z,3.20
2018-11-03T05:23:07.660Z,3.10
2018-11-03T05:28:10.264Z,3.10
2018-11-03T05:30:40.190Z,3.10
2018-11-03T05:33:10.296Z,3.00
2018-11-03T05:35:40.218Z,3.10
2018-11-03T05:38:10.166Z,3.00
2018-11-03T05:43:09.724Z,3.00
2018-11-03T05:45:39.674Z,3.00
2018-11-03T05:53:08.412Z,3.10
2018-11-03T05:55:38.408Z,3.20
2018-11-03T05:58:08.306Z,3.20
2018-11-03T06:23:09.645Z,3.40
2018-11-03T06:25:39.595Z,3.30
2018-11-03T06:28:09.594Z,3.30
2018-11-03T06:30:40.155Z,3.30
2018-11-03T06:33:10.107Z,3.30
2018-11-03T06:43:08.637Z,3.30
2018-11-03T06:45:38.620Z,3.30
2018-11-03T06:55:36.945Z,3.50
2018-11-03T07:03:06.161Z,3.60
2018-11-03T07:08:05.890Z,3.60
2018-11-03T07:10:35.850Z,3.60
2018-11-03T07:20:34.174Z,3.70
2018-11-03T07:25:33.658Z,3.70
2018-11-03T07:30:33.080Z,3.70
2018-11-03T07:35:33.839Z,3.90
2018-11-03T07:45:33.089Z,3.90
2018-11-03T07:50:32.814Z,4.00
2018-11-03T07:55:32.337Z,4.10
2018-11-03T08:00:31.820Z,4.10
2018-11-03T08:10:38.056Z,4.30
2018-11-03T08:15:37.900Z,4.50
2018-11-03T08:18:07.987Z,4.60
2018-11-03T08:20:38.001Z,4.60
2018-11-03T08:28:07.031Z,4.80
2018-11-03T08:30:36.999Z,4.80
2018-11-03T08:38:06.631Z,5.10
2018-11-03T08:40:36.643Z,5.10
2018-11-03T08:50:37.481Z,5.30
2018-11-03T09:00:37.312Z,5.40
2018-11-03T09:10:35.822Z,6.00
2018-11-03T09:20:34.063Z,6.10
2018-11-03T09:25:34.703Z,6.10
2018-11-03T09:28:04.969Z,6.00
2018-11-03T09:30:34.963Z,6.00
2018-11-03T09:35:34.511Z,6.10
2018-11-03T09:38:04.594Z,6.10
2018-11-03T09:45:33.595Z,6.40
2018-11-03T09:55:34.163Z,6.90
2018-11-03T10:00:33.651Z,7.00
2018-11-03T10:06:00.601Z,7.20
2018-11-03T10:20:59.650Z,7.60
2018-11-03T10:25:59.218Z,7.70
2018-11-03T10:31:07.978Z,7.70
2018-11-03T10:38:36.877Z,8.00
2018-11-03T10:46:06.258Z,8.20
2018-11-03T11:01:13.913Z,8.80
2018-11-03T11:03:49.332Z,8.90
2018-11-03T11:08:59.450Z,9.10
2018-11-03T11:14:04.168Z,9.50
2018-11-03T11:29:05.616Z,10.10
2018-11-03T11:31:35.924Z,10.10
2018-11-03T11:36:39.839Z,9.90
2018-11-03T11:41:41.649Z,9.90
2018-11-03T11:44:15.818Z,9.90
2018-11-03T11:49:16.354Z,10.60
2018-11-03T12:01:45.590Z,11.90
2018-11-03T12:09:14.580Z,11.50
2018-11-03T12:14:14.001Z,12.10
2018-11-03T12:16:44.084Z,12.30
2018-11-03T12:24:13.177Z,12.40
2018-11-03T12:26:43.216Z,12.20
2018-11-03T12:29:13.256Z,12.30
2018-11-03T12:49:10.214Z,12.70
2018-11-03T12:54:09.769Z,12.50
2018-11-03T13:06:38.256Z,12.80
2018-11-03T13:14:13.904Z,13.90
2018-11-03T13:21:42.708Z,13.20
2018-11-03T13:24:12.738Z,13.20
2018-11-03T13:34:11.096Z,12.80
2018-11-03T13:36:41.098Z,12.90
2018-11-03T13:39:11.572Z,12.80
2018-11-03T13:41:41.517Z,12.80
2018-11-03T13:44:11.470Z,12.80
2018-11-03T13:46:42.459Z,12.70
2018-11-03T14:04:14.030Z,12.00
2018-11-03T14:06:43.999Z,12.10
2018-11-03T14:11:43.668Z,12.40
2018-11-03T14:14:13.608Z,12.60
2018-11-03T14:21:42.677Z,12.70
2018-11-03T14:26:42.065Z,12.80
2018-11-03T14:34:10.962Z,12.10
2018-11-03T14:36:40.957Z,12.00
2018-11-03T14:41:41.054Z,12.10
2018-11-03T14:54:08.854Z,11.60
2018-11-03T15:16:35.797Z,10.30
2018-11-03T15:24:05.921Z,10.10
2018-11-03T15:31:34.950Z,9.80
2018-11-03T15:34:05.034Z,9.70
2018-11-03T15:36:35.038Z,9.60
2018-11-03T15:41:35.235Z,9.40
2018-11-03T15:44:05.323Z,9.30
2018-11-03T15:46:35.313Z,9.30
2018-11-03T15:49:05.466Z,9.20
2018-11-03T15:54:04.914Z,8.90
2018-11-03T16:11:31.646Z,8.60
2018-11-03T16:14:01.585Z,8.50
2018-11-03T16:23:59.850Z,8.20
2018-11-03T16:26:29.914Z,8.20
2018-11-03T16:33:58.708Z,8.00
2018-11-03T16:36:29.659Z,7.90
2018-11-03T16:41:29.136Z,7.80
2018-11-03T16:44:00.565Z,7.70
2018-11-03T16:46:30.836Z,7.60
2018-11-03T16:49:01.089Z,7.50
2018-11-03T16:51:31.217Z,7.40
2018-11-03T17:03:58.969Z,7.30
2018-11-03T17:06:29.012Z,7.20
2018-11-03T17:13:57.792Z,7.00
2018-11-03T17:18:57.561Z,6.90
2018-11-03T17:21:27.524Z,6.90
2018-11-03T17:28:56.333Z,6.80
2018-11-03T17:36:28.382Z,6.70
2018-11-03T17:51:26.955Z,6.40
2018-11-03T17:53:56.997Z,6.40
2018-11-03T18:03:55.562Z,6.30
2018-11-03T18:06:25.657Z,6.20
2018-11-03T18:11:25.106Z,6.20
2018-11-03T18:21:23.850Z,6.00
2018-11-03T18:23:53.813Z,6.00
2018-11-03T18:31:22.733Z,6.00
2018-11-03T18:36:22.186Z,5.90
2018-11-03T18:41:21.661Z,5.70
2018-11-03T18:48:50.850Z,5.70
2018-11-03T19:01:18.713Z,5.70
2018-11-03T19:03:48.629Z,5.60
2018-11-03T19:06:18.649Z,5.60
2018-11-03T19:08:48.584Z,5.60
2018-11-03T19:16:20.468Z,5.50
2018-11-03T19:26:19.719Z,5.40
2018-11-03T19:28:49.741Z,5.30
2018-11-03T19:31:19.775Z,5.20
2018-11-03T19:48:46.522Z,5.10
2018-11-03T19:51:16.564Z,5.10
2018-11-03T19:53:46.663Z,5.10
2018-11-03T20:03:44.998Z,5.10
2018-11-03T20:06:15.221Z,5.10
2018-11-03T20:11:14.602Z,5.10
2018-11-03T20:18:47.487Z,5.20
2018-11-03T20:21:17.433Z,5.00
2018-11-03T20:23:47.639Z,5.00
2018-11-03T20:26:18.116Z,5.00
2018-11-03T20:28:48.113Z,5.00
2018-11-03T20:31:18.253Z,4.90
2018-11-03T20:33:48.745Z,5.00
2018-11-03T21:01:14.417Z,4.80
2018-11-03T21:08:43.314Z,4.90
2018-11-03T21:11:13.318Z,4.80
2018-11-03T21:16:12.755Z,4.80
2018-11-03T21:18:42.796Z,4.80
2018-11-03T21:21:14.444Z,4.70
2018-11-03T21:28:43.236Z,4.70
2018-11-03T21:31:17.116Z,4.60
2018-11-03T21:46:14.356Z,4.30
2018-11-03T22:11:11.934Z,4.20
2018-11-03T22:16:11.293Z,4.20
2018-11-03T22:18:41.292Z,4.10
2018-11-03T22:31:08.955Z,4.00
2018-11-03T22:46:06.169Z,3.90
2018-11-03T22:48:36.224Z,3.90
2018-11-03T22:53:36.225Z,3.80
2018-11-03T22:56:06.718Z,3.90
2018-11-03T23:01:19.192Z,4.00
2018-11-03T23:06:19.168Z,4.10
2018-11-03T23:08:49.238Z,4.00
2018-11-03T23:21:17.132Z,4.30
2018-11-03T23:31:15.449Z,4.40
2018-11-03T23:33:45.401Z,4.30
2018-11-03T23:36:15.555Z,4.30
2018-11-03T23:56:12.094Z,4.20
2018-11-03T23:58:42.054Z,4.20
